sensor_id;sensor_type;location;lat;lon;timestamp;P1;durP1;ratioP1;P2;durP2;ratioP2
35961;SDS011;22044;48.298;10.008;2022-12-18T00:02:38;148.50;;;53.77;;
35961;SDS011;22044;48.298;10.008;2022-12-18T00:05:24;140.20;;;54.17;;
35961;SDS011;22044;48.298;10.008;2022-12-18T00:08:09;163.10;;;56.67;;
35961;SDS011;22044;48.298;10.008;2022-12-18T00:10:55;160.40;;;54.40;;
35961;SDS011;22044;48.298;10.008;2022-12-18T00:13:49;155.50;;;53.23;;
35961;SDS011;22044;48.298;10.008;2022-12-18T00:16:35;156.03;;;54.93;;
35961;SDS011;22044;48.298;10.008;2022-12-18T00:19:21;157.57;;;53.93;;
35961;SDS011;22044;48.298;10.008;2022-12-18T00:22:06;159.80;;;53.77;;
35961;SDS011;22044;48.298;10.008;2022-12-18T00:24:52;151.77;;;52.83;;
35961;SDS011;22044;48.298;10.008;2022-12-18T00:27:38;151.90;;;53.27;;
35961;SDS011;22044;48.298;10.008;2022-12-18T00:30:25;165.67;;;54.33;;
35961;SDS011;22044;48.298;10.008;2022-12-18T00:33:10;163.23;;;55.03;;
35961;SDS011;22044;48.298;10.008;2022-12-18T00:35:59;162.60;;;52.90;;
35961;SDS011;22044;48.298;10.008;2022-12-18T00:38:45;165.67;;;53.90;;
35961;SDS011;22044;48.298;10.008;2022-12-18T00:41:35;166.40;;;54.80;;
35961;SDS011;22044;48.298;10.008;2022-12-18T00:44:38;170.27;;;56.77;;
35961;SDS011;22044;48.298;10.008;2022-12-18T00:47:25;162.93;;;55.20;;
35961;SDS011;22044;48.298;10.008;2022-12-18T00:50:11;158.97;;;53.80;;
35961;SDS011;22044;48.298;10.008;2022-12-18T00:52:56;173.20;;;55.03;;
35961;SDS011;22044;48.298;10.008;2022-12-18T00:55:42;166.30;;;55.63;;
35961;SDS011;22044;48.298;10.008;2022-12-18T00:58:27;162.93;;;51.97;;
35961;SDS011;22044;48.298;10.008;2022-12-18T01:01:13;175.43;;;53.17;;
35961;SDS011;22044;48.298;10.008;2022-12-18T01:04:01;155.43;;;51.00;;
35961;SDS011;22044;48.298;10.008;2022-12-18T01:06:48;186.07;;;56.23;;
35961;SDS011;22044;48.298;10.008;2022-12-18T01:09:33;178.67;;;56.10;;
35961;SDS011;22044;48.298;10.008;2022-12-18T01:12:19;171.63;;;54.23;;
35961;SDS011;22044;48.298;10.008;2022-12-18T01:15:09;163.73;;;53.57;;
35961;SDS011;22044;48.298;10.008;2022-12-18T01:17:56;168.40;;;54.57;;
35961;SDS011;22044;48.298;10.008;2022-12-18T01:20:45;154.10;;;52.30;;
35961;SDS011;22044;48.298;10.008;2022-12-18T01:23:31;160.67;;;52.90;;
35961;SDS011;22044;48.298;10.008;2022-12-18T01:26:18;152.70;;;50.90;;
35961;SDS011;22044;48.298;10.008;2022-12-18T01:29:03;151.40;;;53.33;;
35961;SDS011;22044;48.298;10.008;2022-12-18T01:31:49;138.50;;;51.40;;
35961;SDS011;22044;48.298;10.008;2022-12-18T01:34:35;134.93;;;49.57;;
35961;SDS011;22044;48.298;10.008;2022-12-18T01:37:23;125.77;;;46.60;;
35961;SDS011;22044;48.298;10.008;2022-12-18T01:40:09;129.00;;;47.10;;
35961;SDS011;22044;48.298;10.008;2022-12-18T01:42:55;126.63;;;49.63;;
35961;SDS011;22044;48.298;10.008;2022-12-18T01:45:41;119.17;;;47.87;;
35961;SDS011;22044;48.298;10.008;2022-12-18T01:48:26;111.67;;;43.77;;
35961;SDS011;22044;48.298;10.008;2022-12-18T01:51:12;113.33;;;44.70;;
35961;SDS011;22044;48.298;10.008;2022-12-18T01:54:00;103.80;;;43.23;;
35961;SDS011;22044;48.298;10.008;2022-12-18T01:56:45;118.93;;;46.13;;
35961;SDS011;22044;48.298;10.008;2022-12-18T01:59:30;114.87;;;46.07;;
35961;SDS011;22044;48.298;10.008;2022-12-18T02:02:19;102.80;;;39.40;;
35961;SDS011;22044;48.298;10.008;2022-12-18T02:05:06;106.07;;;42.17;;
35961;SDS011;22044;48.298;10.008;2022-12-18T02:07:56;123.87;;;44.73;;
35961;SDS011;22044;48.298;10.008;2022-12-18T02:10:53;105.93;;;42.73;;
35961;SDS011;22044;48.298;10.008;2022-12-18T02:13:50;102.67;;;42.77;;
35961;SDS011;22044;48.298;10.008;2022-12-18T02:16:44;106.07;;;42.97;;
35961;SDS011;22044;48.298;10.008;2022-12-18T02:19:42;100.70;;;40.73;;
35961;SDS011;22044;48.298;10.008;2022-12-18T02:22:39;101.03;;;42.00;;
35961;SDS011;22044;48.298;10.008;2022-12-18T02:25:38;104.13;;;40.87;;
35961;SDS011;22044;48.298;10.008;2022-12-18T02:28:34;101.33;;;42.43;;
35961;SDS011;22044;48.298;10.008;2022-12-18T02:31:25;106.90;;;42.07;;
35961;SDS011;22044;48.298;10.008;2022-12-18T02:34:15;93.10;;;39.20;;
35961;SDS011;22044;48.298;10.008;2022-12-18T02:37:04;94.43;;;41.53;;
35961;SDS011;22044;48.298;10.008;2022-12-18T02:39:53;103.57;;;41.83;;
35961;SDS011;22044;48.298;10.008;2022-12-18T02:42:41;86.97;;;39.10;;
35961;SDS011;22044;48.298;10.008;2022-12-18T02:45:31;96.27;;;40.63;;
35961;SDS011;22044;48.298;10.008;2022-12-18T02:48:17;105.17;;;42.37;;
35961;SDS011;22044;48.298;10.008;2022-12-18T02:51:08;97.23;;;40.07;;
35961;SDS011;22044;48.298;10.008;2022-12-18T02:54:05;105.47;;;41.70;;
35961;SDS011;22044;48.298;10.008;2022-12-18T02:56:57;104.07;;;43.43;;
35961;SDS011;22044;48.298;10.008;2022-12-18T02:59:55;101.07;;;42.87;;
35961;SDS011;22044;48.298;10.008;2022-12-18T03:02:46;98.63;;;41.40;;
35961;SDS011;22044;48.298;10.008;2022-12-18T03:05:36;109.27;;;42.17;;
35961;SDS011;22044;48.298;10.008;2022-12-18T03:08:26;113.83;;;44.47;;
35961;SDS011;22044;48.298;10.008;2022-12-18T03:11:16;119.37;;;46.17;;
35961;SDS011;22044;48.298;10.008;2022-12-18T03:14:23;118.00;;;44.07;;
35961;SDS011;22044;48.298;10.008;2022-12-18T03:17:14;121.67;;;46.27;;
35961;SDS011;22044;48.298;10.008;2022-12-18T03:20:06;124.57;;;46.33;;
35961;SDS011;22044;48.298;10.008;2022-12-18T03:22:57;124.90;;;48.77;;
35961;SDS011;22044;48.298;10.008;2022-12-18T03:25:52;117.10;;;46.33;;
35961;SDS011;22044;48.298;10.008;2022-12-18T03:28:46;125.40;;;48.17;;
35961;SDS011;22044;48.298;10.008;2022-12-18T03:31:36;134.83;;;48.10;;
35961;SDS011;22044;48.298;10.008;2022-12-18T03:34:25;120.53;;;44.23;;
35961;SDS011;22044;48.298;10.008;2022-12-18T03:37:18;131.50;;;49.57;;
35961;SDS011;22044;48.298;10.008;2022-12-18T03:40:05;136.33;;;48.33;;
35961;SDS011;22044;48.298;10.008;2022-12-18T03:42:52;133.33;;;48.40;;
35961;SDS011;22044;48.298;10.008;2022-12-18T03:45:46;124.27;;;46.10;;
35961;SDS011;22044;48.298;10.008;2022-12-18T03:48:37;125.43;;;48.23;;
35961;SDS011;22044;48.298;10.008;2022-12-18T03:51:33;150.03;;;50.60;;
35961;SDS011;22044;48.298;10.008;2022-12-18T03:54:25;133.90;;;47.93;;
35961;SDS011;22044;48.298;10.008;2022-12-18T03:57:24;144.63;;;47.97;;
35961;SDS011;22044;48.298;10.008;2022-12-18T04:00:15;132.20;;;46.73;;
35961;SDS011;22044;48.298;10.008;2022-12-18T04:03:16;122.23;;;45.73;;
35961;SDS011;22044;48.298;10.008;2022-12-18T04:06:06;119.77;;;45.70;;
35961;SDS011;22044;48.298;10.008;2022-12-18T04:08:52;119.47;;;44.87;;
35961;SDS011;22044;48.298;10.008;2022-12-18T04:11:43;111.13;;;44.63;;
35961;SDS011;22044;48.298;10.008;2022-12-18T04:14:30;123.80;;;46.63;;
35961;SDS011;22044;48.298;10.008;2022-12-18T04:17:20;116.23;;;43.87;;
35961;SDS011;22044;48.298;10.008;2022-12-18T04:20:07;112.83;;;46.40;;
35961;SDS011;22044;48.298;10.008;2022-12-18T04:22:58;119.70;;;46.70;;
35961;SDS011;22044;48.298;10.008;2022-12-18T04:25:45;125.20;;;48.30;;
35961;SDS011;22044;48.298;10.008;2022-12-18T04:28:39;133.40;;;48.80;;
35961;SDS011;22044;48.298;10.008;2022-12-18T04:31:25;122.70;;;47.90;;
35961;SDS011;22044;48.298;10.008;2022-12-18T04:34:10;126.00;;;47.27;;
35961;SDS011;22044;48.298;10.008;2022-12-18T04:37:02;130.37;;;46.80;;
35961;SDS011;22044;48.298;10.008;2022-12-18T04:39:48;126.00;;;46.37;;
35961;SDS011;22044;48.298;10.008;2022-12-18T04:42:41;125.13;;;45.80;;
35961;SDS011;22044;48.298;10.008;2022-12-18T04:45:28;112.67;;;43.37;;
35961;SDS011;22044;48.298;10.008;2022-12-18T04:48:14;131.70;;;47.30;;
35961;SDS011;22044;48.298;10.008;2022-12-18T04:51:00;118.63;;;45.53;;
35961;SDS011;22044;48.298;10.008;2022-12-18T04:53:46;114.43;;;43.63;;
35961;SDS011;22044;48.298;10.008;2022-12-18T04:56:31;107.77;;;41.90;;
35961;SDS011;22044;48.298;10.008;2022-12-18T04:59:17;105.50;;;42.10;;
35961;SDS011;22044;48.298;10.008;2022-12-18T05:02:05;112.13;;;40.70;;
35961;SDS011;22044;48.298;10.008;2022-12-18T05:04:50;99.20;;;40.63;;
35961;SDS011;22044;48.298;10.008;2022-12-18T05:07:36;101.33;;;40.63;;
35961;SDS011;22044;48.298;10.008;2022-12-18T05:10:21;113.60;;;42.20;;
35961;SDS011;22044;48.298;10.008;2022-12-18T05:13:07;110.37;;;40.93;;
35961;SDS011;22044;48.298;10.008;2022-12-18T05:15:52;104.00;;;41.37;;
35961;SDS011;22044;48.298;10.008;2022-12-18T05:18:40;96.33;;;40.20;;
35961;SDS011;22044;48.298;10.008;2022-12-18T05:21:26;96.10;;;38.23;;
35961;SDS011;22044;48.298;10.008;2022-12-18T05:24:12;92.10;;;37.50;;
35961;SDS011;22044;48.298;10.008;2022-12-18T05:26:57;101.73;;;40.23;;
35961;SDS011;22044;48.298;10.008;2022-12-18T05:29:43;97.67;;;38.47;;
35961;SDS011;22044;48.298;10.008;2022-12-18T05:32:28;97.97;;;39.87;;
35961;SDS011;22044;48.298;10.008;2022-12-18T05:35:15;90.33;;;38.63;;
35961;SDS011;22044;48.298;10.008;2022-12-18T05:38:01;96.97;;;38.43;;
35961;SDS011;22044;48.298;10.008;2022-12-18T05:40:46;91.87;;;38.97;;
35961;SDS011;22044;48.298;10.008;2022-12-18T05:43:33;92.10;;;37.73;;
35961;SDS011;22044;48.298;10.008;2022-12-18T05:46:20;95.93;;;38.90;;
35961;SDS011;22044;48.298;10.008;2022-12-18T05:49:05;100.77;;;39.97;;
35961;SDS011;22044;48.298;10.008;2022-12-18T05:51:52;95.60;;;38.47;;
35961;SDS011;22044;48.298;10.008;2022-12-18T05:54:38;87.57;;;36.80;;
35961;SDS011;22044;48.298;10.008;2022-12-18T05:57:23;88.47;;;36.60;;
35961;SDS011;22044;48.298;10.008;2022-12-18T06:00:09;83.13;;;36.20;;
35961;SDS011;22044;48.298;10.008;2022-12-18T06:02:56;91.10;;;35.83;;
35961;SDS011;22044;48.298;10.008;2022-12-18T06:05:42;93.60;;;38.10;;
35961;SDS011;22044;48.298;10.008;2022-12-18T06:08:31;89.17;;;38.13;;
35961;SDS011;22044;48.298;10.008;2022-12-18T06:11:17;86.47;;;36.07;;
35961;SDS011;22044;48.298;10.008;2022-12-18T06:14:05;91.47;;;37.73;;
35961;SDS011;22044;48.298;10.008;2022-12-18T06:16:51;88.73;;;35.83;;
35961;SDS011;22044;48.298;10.008;2022-12-18T06:19:37;89.67;;;36.70;;
35961;SDS011;22044;48.298;10.008;2022-12-18T06:22:22;85.00;;;36.87;;
35961;SDS011;22044;48.298;10.008;2022-12-18T06:25:09;88.70;;;37.83;;
35961;SDS011;22044;48.298;10.008;2022-12-18T06:27:55;89.67;;;38.07;;
35961;SDS011;22044;48.298;10.008;2022-12-18T06:30:42;92.13;;;37.80;;
35961;SDS011;22044;48.298;10.008;2022-12-18T06:33:28;87.10;;;36.83;;
35961;SDS011;22044;48.298;10.008;2022-12-18T06:36:14;76.77;;;34.40;;
35961;SDS011;22044;48.298;10.008;2022-12-18T06:39:00;97.67;;;38.23;;
35961;SDS011;22044;48.298;10.008;2022-12-18T06:41:47;85.33;;;37.20;;
35961;SDS011;22044;48.298;10.008;2022-12-18T06:44:33;91.77;;;37.30;;
35961;SDS011;22044;48.298;10.008;2022-12-18T06:47:18;95.07;;;37.30;;
35961;SDS011;22044;48.298;10.008;2022-12-18T06:50:04;89.23;;;37.93;;
35961;SDS011;22044;48.298;10.008;2022-12-18T06:52:50;97.83;;;38.87;;
35961;SDS011;22044;48.298;10.008;2022-12-18T06:55:36;93.13;;;37.60;;
35961;SDS011;22044;48.298;10.008;2022-12-18T06:58:23;101.73;;;40.97;;
35961;SDS011;22044;48.298;10.008;2022-12-18T07:01:10;111.00;;;40.80;;
35961;SDS011;22044;48.298;10.008;2022-12-18T07:03:56;100.03;;;40.57;;
35961;SDS011;22044;48.298;10.008;2022-12-18T07:06:42;112.83;;;44.70;;
35961;SDS011;22044;48.298;10.008;2022-12-18T07:09:28;111.90;;;44.93;;
35961;SDS011;22044;48.298;10.008;2022-12-18T07:12:13;113.60;;;42.40;;
35961;SDS011;22044;48.298;10.008;2022-12-18T07:15:00;124.03;;;45.13;;
35961;SDS011;22044;48.298;10.008;2022-12-18T07:17:46;109.83;;;43.93;;
35961;SDS011;22044;48.298;10.008;2022-12-18T07:20:31;135.03;;;47.43;;
35961;SDS011;22044;48.298;10.008;2022-12-18T07:23:17;125.33;;;46.67;;
35961;SDS011;22044;48.298;10.008;2022-12-18T07:26:03;131.57;;;46.37;;
35961;SDS011;22044;48.298;10.008;2022-12-18T07:28:49;134.97;;;43.97;;
35961;SDS011;22044;48.298;10.008;2022-12-18T07:31:36;132.67;;;47.00;;
35961;SDS011;22044;48.298;10.008;2022-12-18T07:34:22;132.37;;;46.43;;
35961;SDS011;22044;48.298;10.008;2022-12-18T07:37:07;130.57;;;46.40;;
35961;SDS011;22044;48.298;10.008;2022-12-18T07:39:53;137.50;;;47.40;;
35961;SDS011;22044;48.298;10.008;2022-12-18T07:42:39;146.27;;;49.93;;
35961;SDS011;22044;48.298;10.008;2022-12-18T07:45:24;160.77;;;49.03;;
35961;SDS011;22044;48.298;10.008;2022-12-18T07:48:11;149.27;;;51.20;;
35961;SDS011;22044;48.298;10.008;2022-12-18T07:50:57;124.03;;;45.30;;
35961;SDS011;22044;48.298;10.008;2022-12-18T07:53:43;143.27;;;48.33;;
35961;SDS011;22044;48.298;10.008;2022-12-18T07:56:28;161.93;;;52.03;;
35961;SDS011;22044;48.298;10.008;2022-12-18T07:59:14;140.23;;;49.67;;
35961;SDS011;22044;48.298;10.008;2022-12-18T08:02:00;134.00;;;46.83;;
35961;SDS011;22044;48.298;10.008;2022-12-18T08:04:47;143.97;;;49.10;;
35961;SDS011;22044;48.298;10.008;2022-12-18T08:07:32;145.27;;;51.47;;
35961;SDS011;22044;48.298;10.008;2022-12-18T08:10:18;136.00;;;47.37;;
35961;SDS011;22044;48.298;10.008;2022-12-18T08:13:04;131.40;;;48.97;;
35961;SDS011;22044;48.298;10.008;2022-12-18T08:15:55;135.77;;;48.33;;
35961;SDS011;22044;48.298;10.008;2022-12-18T08:18:41;134.93;;;48.53;;
35961;SDS011;22044;48.298;10.008;2022-12-18T08:21:29;131.43;;;47.50;;
35961;SDS011;22044;48.298;10.008;2022-12-18T08:24:15;140.80;;;48.73;;
35961;SDS011;22044;48.298;10.008;2022-12-18T08:27:01;148.70;;;53.23;;
35961;SDS011;22044;48.298;10.008;2022-12-18T08:29:47;136.90;;;48.33;;
35961;SDS011;22044;48.298;10.008;2022-12-18T08:32:33;134.93;;;47.30;;
35961;SDS011;22044;48.298;10.008;2022-12-18T08:35:18;126.63;;;49.23;;
35961;SDS011;22044;48.298;10.008;2022-12-18T08:38:05;141.90;;;50.60;;
35961;SDS011;22044;48.298;10.008;2022-12-18T08:40:54;130.03;;;47.17;;
35961;SDS011;22044;48.298;10.008;2022-12-18T08:43:44;123.03;;;47.40;;
35961;SDS011;22044;48.298;10.008;2022-12-18T08:46:47;121.73;;;46.07;;
35961;SDS011;22044;48.298;10.008;2022-12-18T08:49:33;134.13;;;47.40;;
35961;SDS011;22044;48.298;10.008;2022-12-18T08:52:18;132.17;;;47.47;;
35961;SDS011;22044;48.298;10.008;2022-12-18T08:55:06;127.83;;;45.63;;
35961;SDS011;22044;48.298;10.008;2022-12-18T08:57:53;122.97;;;45.47;;
35961;SDS011;22044;48.298;10.008;2022-12-18T09:00:38;112.93;;;45.40;;
35961;SDS011;22044;48.298;10.008;2022-12-18T09:03:24;112.53;;;43.97;;
35961;SDS011;22044;48.298;10.008;2022-12-18T09:06:12;115.23;;;44.93;;
35961;SDS011;22044;48.298;10.008;2022-12-18T09:08:59;132.37;;;47.43;;
35961;SDS011;22044;48.298;10.008;2022-12-18T09:11:46;113.40;;;44.43;;
35961;SDS011;22044;48.298;10.008;2022-12-18T09:14:31;121.73;;;47.87;;
35961;SDS011;22044;48.298;10.008;2022-12-18T09:17:17;113.40;;;43.37;;
35961;SDS011;22044;48.298;10.008;2022-12-18T09:20:03;109.07;;;43.33;;
35961;SDS011;22044;48.298;10.008;2022-12-18T09:22:49;117.13;;;45.43;;
35961;SDS011;22044;48.298;10.008;2022-12-18T09:25:34;125.03;;;46.10;;
35961;SDS011;22044;48.298;10.008;2022-12-18T09:28:22;115.77;;;44.87;;
35961;SDS011;22044;48.298;10.008;2022-12-18T09:31:08;114.80;;;44.37;;
35961;SDS011;22044;48.298;10.008;2022-12-18T09:33:58;94.37;;;38.30;;
35961;SDS011;22044;48.298;10.008;2022-12-18T09:36:43;99.97;;;41.37;;
35961;SDS011;22044;48.298;10.008;2022-12-18T09:39:29;106.40;;;41.43;;
35961;SDS011;22044;48.298;10.008;2022-12-18T09:42:17;111.00;;;42.17;;
35961;SDS011;22044;48.298;10.008;2022-12-18T09:45:08;102.03;;;39.50;;
35961;SDS011;22044;48.298;10.008;2022-12-18T09:48:01;94.87;;;40.87;;
35961;SDS011;22044;48.298;10.008;2022-12-18T09:50:49;76.83;;;33.07;;
35961;SDS011;22044;48.298;10.008;2022-12-18T09:53:36;81.63;;;34.17;;
35961;SDS011;22044;48.298;10.008;2022-12-18T09:56:25;46.77;;;24.10;;
35961;SDS011;22044;48.298;10.008;2022-12-18T09:59:17;49.37;;;24.03;;
35961;SDS011;22044;48.298;10.008;2022-12-18T10:02:15;51.00;;;25.07;;
35961;SDS011;22044;48.298;10.008;2022-12-18T10:05:10;44.97;;;22.40;;
35961;SDS011;22044;48.298;10.008;2022-12-18T10:07:59;45.23;;;21.23;;
35961;SDS011;22044;48.298;10.008;2022-12-18T10:10:51;53.90;;;24.70;;
35961;SDS011;22044;48.298;10.008;2022-12-18T10:13:39;52.17;;;24.63;;
35961;SDS011;22044;48.298;10.008;2022-12-18T10:16:29;51.87;;;23.80;;
35961;SDS011;22044;48.298;10.008;2022-12-18T10:19:28;52.93;;;23.47;;
35961;SDS011;22044;48.298;10.008;2022-12-18T10:22:41;47.43;;;22.17;;
35961;SDS011;22044;48.298;10.008;2022-12-18T10:25:34;52.57;;;23.03;;
35961;SDS011;22044;48.298;10.008;2022-12-18T10:28:25;48.23;;;23.07;;
35961;SDS011;22044;48.298;10.008;2022-12-18T10:31:12;50.53;;;23.00;;
35961;SDS011;22044;48.298;10.008;2022-12-18T10:34:00;52.47;;;22.90;;
35961;SDS011;22044;48.298;10.008;2022-12-18T10:36:47;55.03;;;24.70;;
35961;SDS011;22044;48.298;10.008;2022-12-18T10:39:34;56.27;;;25.57;;
35961;SDS011;22044;48.298;10.008;2022-12-18T10:42:20;52.40;;;24.30;;
35961;SDS011;22044;48.298;10.008;2022-12-18T10:45:09;59.23;;;26.43;;
35961;SDS011;22044;48.298;10.008;2022-12-18T10:47:56;54.77;;;25.83;;
35961;SDS011;22044;48.298;10.008;2022-12-18T10:50:42;60.40;;;27.20;;
35961;SDS011;22044;48.298;10.008;2022-12-18T10:53:35;61.30;;;28.57;;
35961;SDS011;22044;48.298;10.008;2022-12-18T10:56:21;56.47;;;25.53;;
35961;SDS011;22044;48.298;10.008;2022-12-18T10:59:09;55.33;;;25.57;;
35961;SDS011;22044;48.298;10.008;2022-12-18T11:01:56;53.43;;;24.30;;
35961;SDS011;22044;48.298;10.008;2022-12-18T11:04:49;58.33;;;27.40;;
35961;SDS011;22044;48.298;10.008;2022-12-18T11:07:47;56.40;;;23.93;;
35961;SDS011;22044;48.298;10.008;2022-12-18T11:10:35;55.00;;;22.00;;
35961;SDS011;22044;48.298;10.008;2022-12-18T11:13:23;56.30;;;24.20;;
35961;SDS011;22044;48.298;10.008;2022-12-18T11:16:17;55.37;;;24.33;;
35961;SDS011;22044;48.298;10.008;2022-12-18T11:19:12;63.80;;;26.47;;
35961;SDS011;22044;48.298;10.008;2022-12-18T11:22:17;52.03;;;19.50;;
35961;SDS011;22044;48.298;10.008;2022-12-18T11:25:05;56.80;;;24.37;;
35961;SDS011;22044;48.298;10.008;2022-12-18T11:28:05;53.87;;;24.40;;
35961;SDS011;22044;48.298;10.008;2022-12-18T11:31:22;61.70;;;24.20;;
35961;SDS011;22044;48.298;10.008;2022-12-18T11:34:10;59.67;;;25.53;;
35961;SDS011;22044;48.298;10.008;2022-12-18T11:36:59;65.37;;;25.77;;
35961;SDS011;22044;48.298;10.008;2022-12-18T11:39:49;55.93;;;22.90;;
35961;SDS011;22044;48.298;10.008;2022-12-18T11:42:41;65.77;;;25.43;;
35961;SDS011;22044;48.298;10.008;2022-12-18T11:45:34;58.80;;;26.10;;
35961;SDS011;22044;48.298;10.008;2022-12-18T11:48:26;58.33;;;25.53;;
35961;SDS011;22044;48.298;10.008;2022-12-18T11:51:19;60.07;;;25.43;;
35961;SDS011;22044;48.298;10.008;2022-12-18T11:54:12;58.00;;;27.00;;
35961;SDS011;22044;48.298;10.008;2022-12-18T11:57:02;62.53;;;25.03;;
35961;SDS011;22044;48.298;10.008;2022-12-18T11:59:54;54.33;;;26.47;;
35961;SDS011;22044;48.298;10.008;2022-12-18T12:03:00;56.53;;;24.40;;
35961;SDS011;22044;48.298;10.008;2022-12-18T12:06:08;73.07;;;35.80;;
35961;SDS011;22044;48.298;10.008;2022-12-18T12:09:01;69.37;;;36.17;;
35961;SDS011;22044;48.298;10.008;2022-12-18T12:11:56;61.00;;;26.73;;
35961;SDS011;22044;48.298;10.008;2022-12-18T12:14:53;68.57;;;27.60;;
35961;SDS011;22044;48.298;10.008;2022-12-18T12:17:49;62.17;;;26.23;;
35961;SDS011;22044;48.298;10.008;2022-12-18T12:20:49;66.20;;;26.87;;
35961;SDS011;22044;48.298;10.008;2022-12-18T12:23:43;60.60;;;25.10;;
35961;SDS011;22044;48.298;10.008;2022-12-18T12:26:35;62.90;;;26.03;;
35961;SDS011;22044;48.298;10.008;2022-12-18T12:29:31;62.17;;;26.80;;
35961;SDS011;22044;48.298;10.008;2022-12-18T12:32:30;61.30;;;25.87;;
35961;SDS011;22044;48.298;10.008;2022-12-18T12:35:28;55.70;;;23.77;;
35961;SDS011;22044;48.298;10.008;2022-12-18T12:38:22;62.03;;;25.63;;
35961;SDS011;22044;48.298;10.008;2022-12-18T12:41:13;60.67;;;24.30;;
35961;SDS011;22044;48.298;10.008;2022-12-18T12:44:22;49.70;;;23.57;;
35961;SDS011;22044;48.298;10.008;2022-12-18T12:47:11;55.53;;;24.00;;
35961;SDS011;22044;48.298;10.008;2022-12-18T12:50:03;61.33;;;25.13;;
35961;SDS011;22044;48.298;10.008;2022-12-18T12:52:51;54.53;;;23.73;;
35961;SDS011;22044;48.298;10.008;2022-12-18T12:55:40;49.27;;;21.53;;
35961;SDS011;22044;48.298;10.008;2022-12-18T12:58:30;57.70;;;25.10;;
35961;SDS011;22044;48.298;10.008;2022-12-18T13:01:26;55.00;;;24.30;;
35961;SDS011;22044;48.298;10.008;2022-12-18T13:04:21;49.07;;;20.93;;
35961;SDS011;22044;48.298;10.008;2022-12-18T13:07:17;52.90;;;23.60;;
35961;SDS011;22044;48.298;10.008;2022-12-18T13:10:22;49.60;;;22.70;;
35961;SDS011;22044;48.298;10.008;2022-12-18T13:13:11;51.03;;;22.57;;
35961;SDS011;22044;48.298;10.008;2022-12-18T13:16:03;51.30;;;21.23;;
35961;SDS011;22044;48.298;10.008;2022-12-18T13:18:50;57.70;;;21.70;;
35961;SDS011;22044;48.298;10.008;2022-12-18T13:21:38;57.00;;;23.33;;
35961;SDS011;22044;48.298;10.008;2022-12-18T13:24:24;54.77;;;23.37;;
35961;SDS011;22044;48.298;10.008;2022-12-18T13:27:26;50.87;;;23.03;;
35961;SDS011;22044;48.298;10.008;2022-12-18T13:30:44;55.60;;;23.10;;
35961;SDS011;22044;48.298;10.008;2022-12-18T13:33:41;56.73;;;23.13;;
35961;SDS011;22044;48.298;10.008;2022-12-18T13:36:32;53.50;;;23.60;;
35961;SDS011;22044;48.298;10.008;2022-12-18T13:45:58;55.53;;;24.23;;
35961;SDS011;22044;48.298;10.008;2022-12-18T13:48:50;57.93;;;23.80;;
35961;SDS011;22044;48.298;10.008;2022-12-18T13:51:39;59.00;;;25.33;;
35961;SDS011;22044;48.298;10.008;2022-12-18T13:54:28;55.73;;;23.47;;
35961;SDS011;22044;48.298;10.008;2022-12-18T13:57:25;59.07;;;25.20;;
35961;SDS011;22044;48.298;10.008;2022-12-18T14:00:19;59.73;;;26.30;;
35961;SDS011;22044;48.298;10.008;2022-12-18T14:03:16;57.77;;;24.57;;
35961;SDS011;22044;48.298;10.008;2022-12-18T14:06:05;57.77;;;23.47;;
35961;SDS011;22044;48.298;10.008;2022-12-18T14:08:53;59.60;;;24.87;;
35961;SDS011;22044;48.298;10.008;2022-12-18T14:11:38;55.03;;;22.13;;
35961;SDS011;22044;48.298;10.008;2022-12-18T14:14:24;50.57;;;22.63;;
35961;SDS011;22044;48.298;10.008;2022-12-18T14:17:10;55.30;;;26.87;;
35961;SDS011;22044;48.298;10.008;2022-12-18T14:20:01;55.70;;;22.63;;
35961;SDS011;22044;48.298;10.008;2022-12-18T14:22:49;54.30;;;20.93;;
35961;SDS011;22044;48.298;10.008;2022-12-18T14:25:34;55.10;;;23.73;;
35961;SDS011;22044;48.298;10.008;2022-12-18T14:28:20;63.63;;;26.20;;
35961;SDS011;22044;48.298;10.008;2022-12-18T14:31:15;53.03;;;21.60;;
35961;SDS011;22044;48.298;10.008;2022-12-18T14:34:02;54.30;;;21.70;;
35961;SDS011;22044;48.298;10.008;2022-12-18T14:36:52;57.27;;;24.27;;
35961;SDS011;22044;48.298;10.008;2022-12-18T14:39:40;48.00;;;20.80;;
35961;SDS011;22044;48.298;10.008;2022-12-18T14:42:37;50.73;;;22.23;;
35961;SDS011;22044;48.298;10.008;2022-12-18T14:45:33;58.10;;;24.47;;
35961;SDS011;22044;48.298;10.008;2022-12-18T14:48:32;64.13;;;25.23;;
35961;SDS011;22044;48.298;10.008;2022-12-18T14:51:21;65.30;;;26.00;;
35961;SDS011;22044;48.298;10.008;2022-12-18T14:54:14;54.87;;;23.77;;
35961;SDS011;22044;48.298;10.008;2022-12-18T14:57:04;54.13;;;22.90;;
35961;SDS011;22044;48.298;10.008;2022-12-18T15:00:03;51.50;;;22.60;;
35961;SDS011;22044;48.298;10.008;2022-12-18T15:02:50;57.50;;;22.23;;
35961;SDS011;22044;48.298;10.008;2022-12-18T15:05:39;44.10;;;19.13;;
35961;SDS011;22044;48.298;10.008;2022-12-18T15:08:35;48.83;;;19.00;;
35961;SDS011;22044;48.298;10.008;2022-12-18T15:11:32;46.57;;;21.10;;
35961;SDS011;22044;48.298;10.008;2022-12-18T15:14:31;57.13;;;23.73;;
35961;SDS011;22044;48.298;10.008;2022-12-18T15:17:23;62.20;;;23.10;;
35961;SDS011;22044;48.298;10.008;2022-12-18T15:20:09;56.07;;;22.87;;
35961;SDS011;22044;48.298;10.008;2022-12-18T15:22:55;61.37;;;24.77;;
35961;SDS011;22044;48.298;10.008;2022-12-18T15:25:41;64.37;;;24.23;;
35961;SDS011;22044;48.298;10.008;2022-12-18T15:28:34;65.78;;;31.63;;
35961;SDS011;22044;48.298;10.008;2022-12-18T15:31:22;60.97;;;25.30;;
35961;SDS011;22044;48.298;10.008;2022-12-18T15:34:11;59.83;;;25.10;;
35961;SDS011;22044;48.298;10.008;2022-12-18T15:36:58;60.93;;;25.17;;
35961;SDS011;22044;48.298;10.008;2022-12-18T15:39:43;56.97;;;24.83;;
35961;SDS011;22044;48.298;10.008;2022-12-18T15:42:29;53.93;;;23.93;;
35961;SDS011;22044;48.298;10.008;2022-12-18T15:45:34;60.93;;;24.73;;
35961;SDS011;22044;48.298;10.008;2022-12-18T15:48:21;57.40;;;23.60;;
35961;SDS011;22044;48.298;10.008;2022-12-18T15:51:09;64.67;;;25.53;;
35961;SDS011;22044;48.298;10.008;2022-12-18T15:53:58;62.83;;;26.97;;
35961;SDS011;22044;48.298;10.008;2022-12-18T15:56:45;59.97;;;25.57;;
35961;SDS011;22044;48.298;10.008;2022-12-18T15:59:48;57.37;;;24.47;;
35961;SDS011;22044;48.298;10.008;2022-12-18T16:02:35;49.77;;;20.83;;
35961;SDS011;22044;48.298;10.008;2022-12-18T16:05:20;52.60;;;20.73;;
35961;SDS011;22044;48.298;10.008;2022-12-18T16:08:07;61.73;;;24.47;;
35961;SDS011;22044;48.298;10.008;2022-12-18T16:10:53;54.77;;;22.40;;
35961;SDS011;22044;48.298;10.008;2022-12-18T16:13:38;63.73;;;25.00;;
35961;SDS011;22044;48.298;10.008;2022-12-18T16:16:24;57.50;;;23.73;;
35961;SDS011;22044;48.298;10.008;2022-12-18T16:19:11;59.27;;;23.27;;